sensor_id;sensor_type;location;lat;lon;timestamp;pressure;altitude;pressure_sealevel;temperature;humidity
18509;BME280;9383;50.928;12.116;2023-09-08T00:00:01;99347.47;;;13.32;79.87
18509;BME280;9383;50.928;12.116;2023-09-08T00:02:28;99348.50;;;13.29;80.04
18509;BME280;9383;50.928;12.116;2023-09-08T00:04:55;99344.28;;;13.23;80.28
18509;BME280;9383;50.928;12.116;2023-09-08T00:07:22;99349.78;;;13.19;80.36
18509;BME280;9383;50.928;12.116;2023-09-08T00:09:48;99343.69;;;13.15;80.25
18509;BME280;9383;50.928;12.116;2023-09-08T00:12:15;99350.88;;;13.13;80.09
18509;BME280;9383;50.928;12.116;2023-09-08T00:14:41;99344.84;;;13.08;80.32
18509;BME280;9383;50.928;12.116;2023-09-08T00:17:13;99344.13;;;13.04;80.47
18509;BME280;9383;50.928;12.116;2023-09-08T00:19:40;99338.09;;;12.99;80.54
18509;BME280;9383;50.928;12.116;2023-09-08T00:22:07;99340.94;;;12.94;80.58
18509;BME280;9383;50.928;12.116;2023-09-08T00:24:34;99342.03;;;12.89;80.92
18509;BME280;9383;50.928;12.116;2023-09-08T00:27:01;99343.09;;;12.85;80.99
18509;BME280;9383;50.928;12.116;2023-09-08T00:29:28;99344.94;;;12.83;80.97
18509;BME280;9383;50.928;12.116;2023-09-08T00:31:54;99339.75;;;12.79;80.85
18509;BME280;9383;50.928;12.116;2023-09-08T00:34:26;99344.34;;;12.74;80.75
18509;BME280;9383;50.928;12.116;2023-09-08T00:36:52;99350.88;;;12.65;81.15
18509;BME280;9383;50.928;12.116;2023-09-08T00:39:19;99345.84;;;12.58;81.70
18509;BME280;9383;50.928;12.116;2023-09-08T00:41:45;99342.50;;;12.52;81.98
18509;BME280;9383;50.928;12.116;2023-09-08T00:44:18;99355.03;;;12.49;81.93
18509;BME280;9383;50.928;12.116;2023-09-08T00:46:44;99344.56;;;12.44;81.85
18509;BME280;9383;50.928;12.116;2023-09-08T00:49:11;99346.47;;;12.41;82.20
18509;BME280;9383;50.928;12.116;2023-09-08T00:51:38;99347.53;;;12.35;82.04
18509;BME280;9383;50.928;12.116;2023-09-08T00:54:05;99347.66;;;12.32;82.29
18509;BME280;9383;50.928;12.116;2023-09-08T00:56:32;99349.50;;;12.30;82.28
18509;BME280;9383;50.928;12.116;2023-09-08T00:58:59;99357.69;;;12.23;81.96
18509;BME280;9383;50.928;12.116;2023-09-08T01:01:26;99355.25;;;12.17;82.17
18509;BME280;9383;50.928;12.116;2023-09-08T01:03:52;99355.38;;;12.14;82.51
18509;BME280;9383;50.928;12.116;2023-09-08T01:06:19;99356.38;;;12.10;82.50
18509;BME280;9383;50.928;12.116;2023-09-08T01:08:46;99354.75;;;12.06;82.21
18509;BME280;9383;50.928;12.116;2023-09-08T01:11:13;99353.16;;;12.02;82.58
18509;BME280;9383;50.928;12.116;2023-09-08T01:13:43;99359.31;;;12.01;82.80
18509;BME280;9383;50.928;12.116;2023-09-08T01:16:10;99355.13;;;11.95;82.88
18509;BME280;9383;50.928;12.116;2023-09-08T01:18:57;99365.06;;;11.88;83.20
18509;BME280;9383;50.928;12.116;2023-09-08T01:21:41;99352.91;;;11.81;83.11
18509;BME280;9383;50.928;12.116;2023-09-08T01:27:14;99356.78;;;11.71;83.62
18509;BME280;9383;50.928;12.116;2023-09-08T01:29:43;99357.91;;;11.63;84.02
18509;BME280;9383;50.928;12.116;2023-09-08T01:32:11;99358.06;;;11.59;84.31
18509;BME280;9383;50.928;12.116;2023-09-08T01:34:38;99356.47;;;11.53;84.39
18509;BME280;9383;50.928;12.116;2023-09-08T01:37:07;99349.44;;;11.52;84.48
18509;BME280;9383;50.928;12.116;2023-09-08T01:39:34;99357.41;;;11.52;84.17
18509;BME280;9383;50.928;12.116;2023-09-08T01:42:02;99358.34;;;11.49;84.08
18509;BME280;9383;50.928;12.116;2023-09-08T01:44:28;99352.25;;;11.46;84.23
18509;BME280;9383;50.928;12.116;2023-09-08T01:46:55;99356.88;;;11.40;84.59
18509;BME280;9383;50.928;12.116;2023-09-08T01:49:24;99355.16;;;11.38;84.60
18509;BME280;9383;50.928;12.116;2023-09-08T01:51:50;99351.69;;;11.36;84.66
18509;BME280;9383;50.928;12.116;2023-09-08T01:54:17;99356.19;;;11.34;84.31
18509;BME280;9383;50.928;12.116;2023-09-08T01:56:43;99353.63;;;11.31;84.52
18509;BME280;9383;50.928;12.116;2023-09-08T01:59:10;99349.44;;;11.23;84.83
18509;BME280;9383;50.928;12.116;2023-09-08T02:01:43;99348.56;;;11.23;84.87
18509;BME280;9383;50.928;12.116;2023-09-08T02:04:24;99357.56;;;11.17;85.23
18509;BME280;9383;50.928;12.116;2023-09-08T02:06:56;99349.69;;;11.16;85.05
18509;BME280;9383;50.928;12.116;2023-09-08T02:09:31;99351.50;;;11.14;85.21
18509;BME280;9383;50.928;12.116;2023-09-08T02:11:59;99346.34;;;11.09;85.31
18509;BME280;9383;50.928;12.116;2023-09-08T02:14:25;99354.44;;;11.04;85.21
18509;BME280;9383;50.928;12.116;2023-09-08T02:16:52;99353.63;;;11.02;85.21
18509;BME280;9383;50.928;12.116;2023-09-08T02:19:18;99351.03;;;10.99;85.60
18509;BME280;9383;50.928;12.116;2023-09-08T02:21:45;99360.78;;;10.98;85.56
18509;BME280;9383;50.928;12.116;2023-09-08T02:24:31;99347.66;;;10.94;85.48
18509;BME280;9383;50.928;12.116;2023-09-08T02:26:57;99346.94;;;10.89;85.51
18509;BME280;9383;50.928;12.116;2023-09-08T02:29:24;99347.06;;;10.84;85.84
18509;BME280;9383;50.928;12.116;2023-09-08T02:31:50;99353.34;;;10.81;85.86
18509;BME280;9383;50.928;12.116;2023-09-08T02:34:17;99352.50;;;10.79;85.98
18509;BME280;9383;50.928;12.116;2023-09-08T02:36:44;99354.41;;;10.74;86.02
18509;BME280;9383;50.928;12.116;2023-09-08T02:39:10;99346.63;;;10.69;86.35
18509;BME280;9383;50.928;12.116;2023-09-08T02:41:37;99344.88;;;10.68;86.23
18509;BME280;9383;50.928;12.116;2023-09-08T02:44:04;99342.25;;;10.67;86.09
18509;BME280;9383;50.928;12.116;2023-09-08T02:46:31;99334.41;;;10.64;86.11
18509;BME280;9383;50.928;12.116;2023-09-08T02:48:57;99335.38;;;10.60;86.35
18509;BME280;9383;50.928;12.116;2023-09-08T02:51:24;99342.53;;;10.58;86.78
18509;BME280;9383;50.928;12.116;2023-09-08T02:53:51;99338.13;;;10.57;86.34
18509;BME280;9383;50.928;12.116;2023-09-08T02:56:18;99338.25;;;10.52;86.98
18509;BME280;9383;50.928;12.116;2023-09-08T02:58:44;99338.38;;;10.47;87.10
18509;BME280;9383;50.928;12.116;2023-09-08T03:01:12;99330.53;;;10.44;87.20
18509;BME280;9383;50.928;12.116;2023-09-08T03:03:41;99334.09;;;10.43;87.17
18509;BME280;9383;50.928;12.116;2023-09-08T03:06:18;99338.56;;;10.41;87.11
18509;BME280;9383;50.928;12.116;2023-09-08T03:08:45;99335.00;;;10.40;87.27
18509;BME280;9383;50.928;12.116;2023-09-08T03:11:13;99334.16;;;10.40;87.00
18509;BME280;9383;50.928;12.116;2023-09-08T03:13:40;99332.41;;;10.39;86.99
18509;BME280;9383;50.928;12.116;2023-09-08T03:16:08;99333.38;;;10.36;86.83
18509;BME280;9383;50.928;12.116;2023-09-08T03:18:36;99331.63;;;10.35;87.02
18509;BME280;9383;50.928;12.116;2023-09-08T03:21:05;99328.22;;;10.30;87.18
18509;BME280;9383;50.928;12.116;2023-09-08T03:23:40;99331.03;;;10.25;87.51
18509;BME280;9383;50.928;12.116;2023-09-08T03:26:08;99321.41;;;10.21;87.47
18509;BME280;9383;50.928;12.116;2023-09-08T03:28:35;99255.53;;;9.76;87.63
18509;BME280;9383;50.928;12.116;2023-09-08T03:31:03;99322.41;;;10.17;87.93
18509;BME280;9383;50.928;12.116;2023-09-08T03:33:29;99244.34;;;9.64;87.89
18509;BME280;9383;50.928;12.116;2023-09-08T03:35:56;99321.59;;;10.13;87.83
18509;BME280;9383;50.928;12.116;2023-09-08T03:38:23;99320.81;;;10.10;87.87
18509;BME280;9383;50.928;12.116;2023-09-08T03:40:50;99322.56;;;10.11;87.76
18509;BME280;9383;50.928;12.116;2023-09-08T03:43:17;99335.84;;;10.09;87.63
18509;BME280;9383;50.928;12.116;2023-09-08T03:45:44;99320.06;;;10.06;87.87
18509;BME280;9383;50.928;12.116;2023-09-08T03:48:11;99321.00;;;10.04;88.34
18509;BME280;9383;50.928;12.116;2023-09-08T03:50:38;99332.53;;;10.01;88.55
18509;BME280;9383;50.928;12.116;2023-09-08T03:53:06;99331.69;;;10.01;88.42
18509;BME280;9383;50.928;12.116;2023-09-08T03:55:36;99329.97;;;9.98;88.65
18509;BME280;9383;50.928;12.116;2023-09-08T03:58:02;99333.53;;;9.97;88.63
18509;BME280;9383;50.928;12.116;2023-09-08T04:00:29;99322.16;;;9.92;88.81
18509;BME280;9383;50.928;12.116;2023-09-08T04:02:56;99321.31;;;9.91;88.81
18509;BME280;9383;50.928;12.116;2023-09-08T04:05:23;99321.31;;;9.91;89.17
18509;BME280;9383;50.928;12.116;2023-09-08T04:07:50;99320.53;;;9.88;89.07
18509;BME280;9383;50.928;12.116;2023-09-08T04:10:16;99316.16;;;9.85;89.17
18509;BME280;9383;50.928;12.116;2023-09-08T04:12:43;99317.06;;;9.84;89.03
18509;BME280;9383;50.928;12.116;2023-09-08T04:15:10;99318.00;;;9.83;89.16
18509;BME280;9383;50.928;12.116;2023-09-08T04:17:38;99318.91;;;9.82;89.20
18509;BME280;9383;50.928;12.116;2023-09-08T04:20:06;99319.91;;;9.78;89.16
18509;BME280;9383;50.928;12.116;2023-09-08T04:22:34;99318.16;;;9.77;89.30
18509;BME280;9383;50.928;12.116;2023-09-08T04:25:02;99319.97;;;9.75;89.51
18509;BME280;9383;50.928;12.116;2023-09-08T04:27:29;99320.03;;;9.71;89.39
18509;BME280;9383;50.928;12.116;2023-09-08T04:29:55;99324.47;;;9.71;89.55
18509;BME280;9383;50.928;12.116;2023-09-08T04:32:22;99326.34;;;9.67;89.81
18509;BME280;9383;50.928;12.116;2023-09-08T04:34:49;99325.50;;;9.65;89.91
18509;BME280;9383;50.928;12.116;2023-09-08T04:37:16;99316.75;;;9.63;89.88
18509;BME280;9383;50.928;12.116;2023-09-08T04:39:44;99318.56;;;9.61;90.07
18509;BME280;9383;50.928;12.116;2023-09-08T04:42:11;99309.84;;;9.56;90.41
18509;BME280;9383;50.928;12.116;2023-09-08T04:44:39;99315.13;;;9.56;90.27
18509;BME280;9383;50.928;12.116;2023-09-08T04:47:06;99310.75;;;9.55;90.34
18509;BME280;9383;50.928;12.116;2023-09-08T04:49:35;99314.41;;;9.51;90.56
18509;BME280;9383;50.928;12.116;2023-09-08T04:52:04;99316.16;;;9.50;90.83
18509;BME280;9383;50.928;12.116;2023-09-08T04:54:32;99311.75;;;9.51;90.83
18509;BME280;9383;50.928;12.116;2023-09-08T04:56:59;99316.06;;;9.53;90.93
18509;BME280;9383;50.928;12.116;2023-09-08T04:59:27;99313.47;;;9.52;91.08
18509;BME280;9383;50.928;12.116;2023-09-08T05:01:53;99318.78;;;9.52;91.03
18509;BME280;9383;50.928;12.116;2023-09-08T05:04:20;99313.44;;;9.53;91.04
18509;BME280;9383;50.928;12.116;2023-09-08T05:06:48;99316.03;;;9.55;91.17
18509;BME280;9383;50.928;12.116;2023-09-08T05:09:16;99325.78;;;9.54;91.18
18509;BME280;9383;50.928;12.116;2023-09-08T05:11:43;99317.78;;;9.56;91.31
18509;BME280;9383;50.928;12.116;2023-09-08T05:14:10;99256.91;;;9.20;91.18
18509;BME280;9383;50.928;12.116;2023-09-08T05:16:41;99320.34;;;9.59;91.73
18509;BME280;9383;50.928;12.116;2023-09-08T05:19:16;99322.97;;;9.61;91.79
18509;BME280;9383;50.928;12.116;2023-09-08T05:21:44;99320.28;;;9.62;91.85
18509;BME280;9383;50.928;12.116;2023-09-08T05:24:12;99318.47;;;9.64;91.98
18509;BME280;9383;50.928;12.116;2023-09-08T05:26:41;99320.13;;;9.68;92.14
18509;BME280;9383;50.928;12.116;2023-09-08T05:29:09;99323.53;;;9.74;92.29
18509;BME280;9383;50.928;12.116;2023-09-08T05:31:36;99318.09;;;9.78;92.58
18509;BME280;9383;50.928;12.116;2023-09-08T05:34:03;99319.69;;;9.85;92.89
18509;BME280;9383;50.928;12.116;2023-09-08T05:36:31;99321.31;;;9.91;93.22
18509;BME280;9383;50.928;12.116;2023-09-08T05:39:00;99321.19;;;9.96;93.22
18509;BME280;9383;50.928;12.116;2023-09-08T05:41:26;99315.78;;;10.01;93.24
18509;BME280;9383;50.928;12.116;2023-09-08T05:43:53;99318.16;;;10.10;93.26
18509;BME280;9383;50.928;12.116;2023-09-08T05:46:20;99319.66;;;10.20;93.70
18509;BME280;9383;50.928;12.116;2023-09-08T05:48:48;99315.97;;;10.26;93.41
18509;BME280;9383;50.928;12.116;2023-09-08T05:51:14;99305.22;;;10.32;93.67
18509;BME280;9383;50.928;12.116;2023-09-08T05:53:41;99317.31;;;10.43;94.03
18509;BME280;9383;50.928;12.116;2023-09-08T05:56:08;99317.84;;;10.55;94.37
18509;BME280;9383;50.928;12.116;2023-09-08T05:58:35;99318.50;;;10.64;94.11
18509;BME280;9383;50.928;12.116;2023-09-08T06:01:03;99312.97;;;10.72;94.54
18509;BME280;9383;50.928;12.116;2023-09-08T06:03:30;99313.56;;;10.81;95.15
18509;BME280;9383;50.928;12.116;2023-09-08T06:05:57;99311.44;;;10.93;95.11
18509;BME280;9383;50.928;12.116;2023-09-08T06:08:24;99319.06;;;11.04;95.64
18509;BME280;9383;50.928;12.116;2023-09-08T06:10:51;99313.38;;;11.16;96.76
18509;BME280;9383;50.928;12.116;2023-09-08T06:13:18;99318.28;;;11.29;97.79
18509;BME280;9383;50.928;12.116;2023-09-08T06:15:46;99321.38;;;11.43;99.28
18509;BME280;9383;50.928;12.116;2023-09-08T06:18:12;99318.25;;;11.59;100.00
18509;BME280;9383;50.928;12.116;2023-09-08T06:20:47;99319.28;;;11.80;100.00
18509;BME280;9383;50.928;12.116;2023-09-08T06:23:14;99314.38;;;11.94;100.00
18509;BME280;9383;50.928;12.116;2023-09-08T06:25:41;99320.97;;;12.09;100.00
18509;BME280;9383;50.928;12.116;2023-09-08T06:28:11;99320.44;;;12.25;100.00
18509;BME280;9383;50.928;12.116;2023-09-08T06:30:37;99310.13;;;12.41;100.00
18509;BME280;9383;50.928;12.116;2023-09-08T06:33:08;99316.59;;;12.58;100.00
18509;BME280;9383;50.928;12.116;2023-09-08T06:35:35;99300.00;;;12.75;100.00
18509;BME280;9383;50.928;12.116;2023-09-08T06:38:03;99296.69;;;12.92;100.00
18509;BME280;9383;50.928;12.116;2023-09-08T06:40:31;99303.16;;;13.08;100.00
18509;BME280;9383;50.928;12.116;2023-09-08T06:42:58;99301.53;;;13.27;100.00
18509;BME280;9383;50.928;12.116;2023-09-08T06:45:24;99297.31;;;13.43;100.00
18509;BME280;9383;50.928;12.116;2023-09-08T06:47:51;99301.97;;;13.60;100.00
18509;BME280;9383;50.928;12.116;2023-09-08T06:50:22;99306.59;;;13.77;100.00
18509;BME280;9383;50.928;12.116;2023-09-08T06:52:52;99304.97;;;13.96;100.00
18509;BME280;9383;50.928;12.116;2023-09-08T06:55:19;99302.41;;;14.13;100.00
18509;BME280;9383;50.928;12.116;2023-09-08T06:57:46;99307.09;;;14.29;100.00
18509;BME280;9383;50.928;12.116;2023-09-08T07:00:15;99300.97;;;14.46;100.00
18509;BME280;9383;50.928;12.116;2023-09-08T07:02:44;99305.53;;;14.63;100.00
18509;BME280;9383;50.928;12.116;2023-09-08T07:05:11;99297.72;;;14.79;100.00
18509;BME280;9383;50.928;12.116;2023-09-08T07:07:37;99304.00;;;14.97;100.00
18509;BME280;9383;50.928;12.116;2023-09-08T07:10:05;99298.72;;;15.15;100.00
18509;BME280;9383;50.928;12.116;2023-09-08T07:12:32;99302.41;;;15.31;100.00
18509;BME280;9383;50.928;12.116;2023-09-08T07:14:59;99301.47;;;15.50;100.00
18509;BME280;9383;50.928;12.116;2023-09-08T07:17:27;99304.25;;;15.66;100.00
18509;BME280;9383;50.928;12.116;2023-09-08T07:19:54;99292.47;;;15.88;100.00
18509;BME280;9383;50.928;12.116;2023-09-08T07:22:20;99297.53;;;16.12;100.00
18509;BME280;9383;50.928;12.116;2023-09-08T07:24:47;99279.72;;;16.28;100.00
18509;BME280;9383;50.928;12.116;2023-09-08T07:27:13;99289.34;;;16.49;100.00
18509;BME280;9383;50.928;12.116;2023-09-08T07:29:41;99285.66;;;16.67;100.00
18509;BME280;9383;50.928;12.116;2023-09-08T07:32:11;99291.91;;;16.84;100.00
18509;BME280;9383;50.928;12.116;2023-09-08T07:34:38;99287.50;;;16.99;100.00
18509;BME280;9383;50.928;12.116;2023-09-08T07:37:06;99291.94;;;17.16;100.00
18509;BME280;9383;50.928;12.116;2023-09-08T07:39:33;99286.50;;;17.34;100.00
18509;BME280;9383;50.928;12.116;2023-09-08T07:42:01;99290.78;;;17.52;100.00
18509;BME280;9383;50.928;12.116;2023-09-08T07:44:28;99287.88;;;17.71;100.00
18509;BME280;9383;50.928;12.116;2023-09-08T07:46:59;99289.47;;;17.90;100.00
18509;BME280;9383;50.928;12.116;2023-09-08T07:49:26;99292.78;;;18.10;100.00
18509;BME280;9383;50.928;12.116;2023-09-08T07:51:53;99291.56;;;18.30;100.00
18509;BME280;9383;50.928;12.116;2023-09-08T07:54:20;99293.81;;;18.52;100.00
18509;BME280;9383;50.928;12.116;2023-09-08T07:56:48;99288.16;;;18.72;100.00
18509;BME280;9383;50.928;12.116;2023-09-08T07:59:15;99288.47;;;18.94;100.00
18509;BME280;9383;50.928;12.116;2023-09-08T08:01:42;99292.50;;;19.16;100.00
18509;BME280;9383;50.928;12.116;2023-09-08T08:04:09;99290.22;;;19.37;98.44
18509;BME280;9383;50.928;12.116;2023-09-08T08:06:36;99281.69;;;19.58;96.60
18509;BME280;9383;50.928;12.116;2023-09-08T08:09:03;99290.91;;;19.81;95.32
18509;BME280;9383;50.928;12.116;2023-09-08T08:11:30;99279.66;;;20.02;93.31
18509;BME280;9383;50.928;12.116;2023-09-08T08:13:56;99282.59;;;20.25;91.24
18509;BME280;9383;50.928;12.116;2023-09-08T08:16:23;99281.84;;;20.49;90.17
18509;BME280;9383;50.928;12.116;2023-09-08T08:18:50;99279.31;;;20.72;89.68
18509;BME280;9383;50.928;12.116;2023-09-08T08:21:17;99278.78;;;20.92;86.33
18509;BME280;9383;50.928;12.116;2023-09-08T08:23:43;99281.72;;;21.14;85.31
18509;BME280;9383;50.928;12.116;2023-09-08T08:26:10;99274.84;;;21.34;84.42
18509;BME280;9383;50.928;12.116;2023-09-08T08:28:37;99267.84;;;21.56;82.97
18509;BME280;9383;50.928;12.116;2023-09-08T08:31:04;99273.47;;;21.77;82.55
18509;BME280;9383;50.928;12.116;2023-09-08T08:33:31;99271.81;;;21.99;82.21
18509;BME280;9383;50.928;12.116;2023-09-08T08:35:59;99262.78;;;22.23;81.00
18509;BME280;9383;50.928;12.116;2023-09-08T08:38:28;99265.53;;;22.45;76.99
18509;BME280;9383;50.928;12.116;2023-09-08T08:40:54;99265.66;;;22.67;74.48
18509;BME280;9383;50.928;12.116;2023-09-08T08:43:22;99256.78;;;22.87;73.50
18509;BME280;9383;50.928;12.116;2023-09-08T08:45:50;99258.72;;;23.08;73.47
18509;BME280;9383;50.928;12.116;2023-09-08T08:48:20;99266.81;;;23.31;71.72
18509;BME280;9383;50.928;12.116;2023-09-08T08:50:48;99261.44;;;23.52;69.47
18509;BME280;9383;50.928;12.116;2023-09-08T08:53:17;99260.75;;;23.71;67.04
18509;BME280;9383;50.928;12.116;2023-09-08T08:55:48;99261.47;;;23.95;67.25
18509;BME280;9383;50.928;12.116;2023-09-08T08:58:17;99249.69;;;24.17;65.80
18509;BME280;9383;50.928;12.116;2023-09-08T09:00:47;99248.94;;;24.36;63.43
18509;BME280;9383;50.928;12.116;2023-09-08T09:03:14;99247.16;;;24.56;64.96
18509;BME280;9383;50.928;12.116;2023-09-08T09:05:41;99247.66;;;24.71;65.02
18509;BME280;9383;50.928;12.116;2023-09-08T09:08:11;99247.72;;;24.81;64.39
18509;BME280;9383;50.928;12.116;2023-09-08T09:10:41;99238.19;;;24.97;63.30
18509;BME280;9383;50.928;12.116;2023-09-08T09:13:14;99238.94;;;25.19;61.93
18509;BME280;9383;50.928;12.116;2023-09-08T09:15:41;99236.09;;;25.30;61.99
18509;BME280;9383;50.928;12.116;2023-09-08T09:18:09;99242.81;;;25.46;62.98
18509;BME280;9383;50.928;12.116;2023-09-08T09:20:36;99240.28;;;25.64;60.13
18509;BME280;9383;50.928;12.116;2023-09-08T09:23:03;99238.41;;;25.84;59.99
18509;BME280;9383;50.928;12.116;2023-09-08T09:25:30;99235.63;;;26.04;59.30
18509;BME280;9383;50.928;12.116;2023-09-08T09:28:00;99234.31;;;26.18;59.77
18509;BME280;9383;50.928;12.116;2023-09-08T09:30:28;99237.19;;;26.26;56.76
18509;BME280;9383;50.928;12.116;2023-09-08T09:33:11;99233.88;;;26.32;56.77
18509;BME280;9383;50.928;12.116;2023-09-08T09:35:46;99235.28;;;26.46;57.16
18509;BME280;9383;50.928;12.116;2023-09-08T09:38:14;99239.59;;;26.67;53.92
18509;BME280;9383;50.928;12.116;2023-09-08T09:40:41;99231.25;;;26.88;53.43
18509;BME280;9383;50.928;12.116;2023-09-08T09:43:28;99227.38;;;27.09;53.79
18509;BME280;9383;50.928;12.116;2023-09-08T09:46:16;99232.44;;;27.22;54.14
18509;BME280;9383;50.928;12.116;2023-09-08T09:49:02;99230.56;;;27.41;50.37
18509;BME280;9383;50.928;12.116;2023-09-08T09:51:30;99231.19;;;27.52;51.58
18509;BME280;9383;50.928;12.116;2023-09-08T09:53:56;99230.28;;;27.62;50.04
18509;BME280;9383;50.928;12.116;2023-09-08T09:56:26;99234.88;;;27.61;48.80
18509;BME280;9383;50.928;12.116;2023-09-08T09:58:53;99227.94;;;27.67;48.49
18509;BME280;9383;50.928;12.116;2023-09-08T10:01:20;99224.81;;;27.80;44.59
18509;BME280;9383;50.928;12.116;2023-09-08T10:03:48;99229.97;;;27.83;44.17
18509;BME280;9383;50.928;12.116;2023-09-08T10:06:16;99229.31;;;27.89;44.14
18509;BME280;9383;50.928;12.116;2023-09-08T10:08:46;99225.31;;;28.02;42.59
18509;BME280;9383;50.928;12.116;2023-09-08T10:11:16;99220.59;;;28.12;41.95
18509;BME280;9383;50.928;12.116;2023-09-08T10:13:47;99234.16;;;28.22;41.52
18509;BME280;9383;50.928;12.116;2023-09-08T10:16:18;99226.03;;;28.30;40.73
18509;BME280;9383;50.928;12.116;2023-09-08T10:18:47;99221.63;;;28.38;40.13
18509;BME280;9383;50.928;12.116;2023-09-08T10:21:17;99222.69;;;28.45;39.87
18509;BME280;9383;50.928;12.116;2023-09-08T10:23:51;99216.41;;;28.53;40.73
18509;BME280;9383;50.928;12.116;2023-09-08T10:26:24;99213.06;;;28.59;41.17
18509;BME280;9383;50.928;12.116;2023-09-08T10:28:54;99210.69;;;28.64;41.21
18509;BME280;9383;50.928;12.116;2023-09-08T10:31:26;99207.31;;;28.70;41.96
18509;BME280;9383;50.928;12.116;2023-09-08T10:33:55;99202.72;;;28.79;40.80
18509;BME280;9383;50.928;12.116;2023-09-08T10:36:24;99207.72;;;28.84;40.94
18509;BME280;9383;50.928;12.116;2023-09-08T10:38:51;99205.16;;;28.82;38.72
18509;BME280;9383;50.928;12.116;2023-09-08T10:43:56;99201.25;;;28.85;37.14
18509;BME280;9383;50.928;12.116;2023-09-08T10:46:27;99197.09;;;28.81;38.13
18509;BME280;9383;50.928;12.116;2023-09-08T10:48:58;99193.00;;;28.76;37.74
18509;BME280;9383;50.928;12.116;2023-09-08T10:51:28;99196.50;;;28.60;37.27
18509;BME280;9383;50.928;12.116;2023-09-08T10:53:55;99206.19;;;28.55;35.79
18509;BME280;9383;50.928;12.116;2023-09-08T10:56:26;99211.84;;;28.53;34.95
18509;BME280;9383;50.928;12.116;2023-09-08T10:58:53;99201.09;;;28.52;35.46
18509;BME280;9383;50.928;12.116;2023-09-08T11:01:21;99200.25;;;28.51;35.74
18509;BME280;9383;50.928;12.116;2023-09-08T11:03:54;99201.41;;;28.48;36.72
18509;BME280;9383;50.928;12.116;2023-09-08T11:06:22;99196.94;;;28.39;37.22
18509;BME280;9383;50.928;12.116;2023-09-08T11:08:50;99195.19;;;28.30;38.25
18509;BME280;9383;50.928;12.116;2023-09-08T11:11:22;99197.41;;;28.26;37.70
18509;BME280;9383;50.928;12.116;2023-09-08T11:13:49;99199.59;;;28.22;36.69
18509;BME280;9383;50.928;12.116;2023-09-08T11:16:28;99195.31;;;28.20;36.50
18509;BME280;9383;50.928;12.116;2023-09-08T11:18:58;99198.97;;;28.11;36.88
18509;BME280;9383;50.928;12.116;2023-09-08T11:21:25;99204.84;;;27.98;37.02
18509;BME280;9383;50.928;12.116;2023-09-08T11:23:52;99195.78;;;27.89;36.92
18509;BME280;9383;50.928;12.116;2023-09-08T11:26:19;99201.69;;;27.84;37.29
18509;BME280;9383;50.928;12.116;2023-09-08T11:28:47;99196.94;;;27.86;36.89
18509;BME280;9383;50.928;12.116;2023-09-08T11:31:16;99190.72;;;27.76;36.48
18509;BME280;9383;50.928;12.116;2023-09-08T11:33:49;99187.09;;;27.67;36.53
18509;BME280;9383;50.928;12.116;2023-09-08T11:36:16;99187.41;;;27.64;36.60
18509;BME280;9383;50.928;12.116;2023-09-08T11:38:44;99189.97;;;27.65;36.59
18509;BME280;9383;50.928;12.116;2023-09-08T11:41:29;99186.88;;;27.60;35.65
18509;BME280;9383;50.928;12.116;2023-09-08T11:43:55;99188.38;;;27.55;36.33
18509;BME280;9383;50.928;12.116;2023-09-08T11:46:26;99187.78;;;27.51;35.98
18509;BME280;9383;50.928;12.116;2023-09-08T11:48:54;99182.66;;;27.48;36.06
18509;BME280;9383;50.928;12.116;2023-09-08T11:51:26;99184.38;;;27.49;35.73
18509;BME280;9383;50.928;12.116;2023-09-08T11:53:54;99185.25;;;27.49;35.89
18509;BME280;9383;50.928;12.116;2023-09-08T11:56:21;99185.06;;;27.51;33.98
18509;BME280;9383;50.928;12.116;2023-09-08T11:58:48;99177.63;;;27.53;33.99
18509;BME280;9383;50.928;12.116;2023-09-08T12:01:15;99178.59;;;27.52;33.47
18509;BME280;9383;50.928;12.116;2023-09-08T12:03:54;99176.81;;;27.43;33.49
18509;BME280;9383;50.928;12.116;2023-09-08T12:06:26;99172.69;;;27.38;34.22
18509;BME280;9383;50.928;12.116;2023-09-08T12:09:01;99171.00;;;27.37;34.67
18509;BME280;9383;50.928;12.116;2023-09-08T12:11:35;99170.69;;;27.41;34.25
18509;BME280;9383;50.928;12.116;2023-09-08T12:14:07;99157.75;;;27.43;34.12
18509;BME280;9383;50.928;12.116;2023-09-08T12:16:34;99162.03;;;27.45;34.55
18509;BME280;9383;50.928;12.116;2023-09-08T12:19:02;99160.00;;;27.47;34.58
18509;BME280;9383;50.928;12.116;2023-09-08T12:21:28;99154.41;;;27.49;33.47
18509;BME280;9383;50.928;12.116;2023-09-08T12:23:55;99152.38;;;27.51;34.35
18509;BME280;9383;50.928;12.116;2023-09-08T12:26:25;99156.81;;;27.52;33.90
18509;BME280;9383;50.928;12.116;2023-09-08T12:28:53;99154.09;;;27.52;34.52
18509;BME280;9383;50.928;12.116;2023-09-08T12:31:20;99151.53;;;27.50;33.67
18509;BME280;9383;50.928;12.116;2023-09-08T12:33:48;99148.97;;;27.49;33.44
18509;BME280;9383;50.928;12.116;2023-09-08T12:36:19;99143.84;;;27.46;34.12
18509;BME280;9383;50.928;12.116;2023-09-08T12:38:52;99130.25;;;27.46;33.02
18509;BME280;9383;50.928;12.116;2023-09-08T12:41:20;99141.13;;;27.46;33.98
18509;BME280;9383;50.928;12.116;2023-09-08T12:43:47;99137.38;;;27.47;34.32
18509;BME280;9383;50.928;12.116;2023-09-08T12:46:16;99069.03;;;27.05;34.22
18509;BME280;9383;50.928;12.116;2023-09-08T12:48:43;99142.38;;;27.51;34.33
18509;BME280;9383;50.928;12.116;2023-09-08T12:51:09;99129.59;;;27.52;34.17
18509;BME280;9383;50.928;12.116;2023-09-08T12:53:36;99131.31;;;27.53;35.11
18509;BME280;9383;50.928;12.116;2023-09-08T12:56:03;99121.13;;;27.55;35.18
18509;BME280;9383;50.928;12.116;2023-09-08T12:58:29;99132.75;;;27.57;35.46
18509;BME280;9383;50.928;12.116;2023-09-08T13:01:02;99123.56;;;27.58;35.19
18509;BME280;9383;50.928;12.116;2023-09-08T13:03:38;99117.94;;;27.60;35.13
18509;BME280;9383;50.928;12.116;2023-09-08T13:06:24;99117.78;;;27.61;35.57
18509;BME280;9383;50.928;12.116;2023-09-08T13:08:51;99118.63;;;27.62;35.56
18509;BME280;9383;50.928;12.116;2023-09-08T13:11:17;99113.91;;;27.64;34.88